Time;durP1;ratioP1;P1;durP2;ratioP2;P2;SDS_P1;SDS_P2;PMS_P1;PMS_P2;Temp;Humidity;BMP_temperature;BMP_pressure;BME280_temperature;BME280_humidity;BME280_pressure;Samples;Min_cycle;Max_cycle;Signal;HPM_P1;HPM_P2
2023/06/03 00:01:41;;;;;;;8.48;3.63;;;;;;;13.55;96.74;102113.41;5090073;28;20344;-36
2023/06/03 00:04:07;;;;;;;;;;;;;;;13.68;94.12;102113.34;5090039;28;20115;-36
2023/06/03 00:06:32;;;;;;;7.60;3.92;;;;;;;13.44;96.25;102095.94;5089903;28;19912;-36
2023/06/03 00:08:57;;;;;;;;;;;;;;;13.64;93.80;102115.66;5090857;28;20035;-36
2023/06/03 00:11:22;;;;;;;8.73;4.00;;;;;;;13.53;95.66;102115.53;5082245;28;19912;-36
2023/06/03 00:13:48;;;;;;;6.27;3.80;;;;;;;13.51;96.01;102114.91;5076623;28;20269;-37
2023/06/03 00:16:13;;;;;;;8.70;4.05;;;;;;;13.43;96.29;102109.75;5077076;28;20269;-37
2023/06/03 00:18:39;;;;;;;;;;;;;;;13.59;93.63;102117.38;5076317;28;20025;-37
2023/06/03 00:21:04;;;;;;;7.55;4.15;;;;;;;13.39;96.48;102110.19;5076438;28;19912;-36
2023/06/03 00:23:31;;;;;;;10.50;4.28;;;;;;;13.39;96.26;102103.91;5076966;28;20437;-37
2023/06/03 00:25:57;;;;;;;11.63;4.50;;;;;;;13.26;96.27;102109.44;5075772;28;20029;-36
2023/06/03 00:28:23;;;;;;;;;;;;;;;13.45;93.70;102110.34;5076168;28;20068;-37
2023/06/03 00:30:48;;;;;;;8.07;3.97;;;;;;;13.31;96.03;102115.03;5076858;28;19913;-37
2023/06/03 00:33:13;;;;;;;;;;;;;;;13.39;93.61;102114.78;5077202;28;20346;-37
2023/06/03 00:35:39;;;;;;;7.70;4.30;;;;;;;13.28;95.35;102113.59;5076413;28;19973;-37
2023/06/03 00:38:04;;;;;;;7.77;4.03;;;;;;;13.19;95.50;102105.91;5075902;28;20269;-36
2023/06/03 00:40:29;;;;;;;10.95;4.55;;;;;;;13.14;95.57;102107.38;5075759;28;20317;-37
2023/06/03 00:42:55;;;;;;;8.40;3.95;;;;;;;13.17;95.01;102108.81;5075774;28;20067;-37
2023/06/03 00:45:20;;;;;;;12.88;5.05;;;;;;;13.07;96.35;102103.03;5075775;28;20097;-36
2023/06/03 00:47:47;;;;;;;9.20;4.20;;;;;;;13.05;96.02;102108.69;5075635;28;20032;-36
2023/06/03 00:50:13;;;;;;;7.85;3.80;;;;;;;13.08;94.99;102115.56;5076479;28;20365;-37
2023/06/03 00:52:39;;;;;;;;;;;;;;;13.22;93.53;102109.03;5075986;28;20028;-36
2023/06/03 00:55:05;;;;;;;8.10;4.57;;;;;;;12.97;94.99;102108.09;5075515;28;19923;-36
2023/06/03 00:57:30;;;;;;;8.40;3.90;;;;;;;13.06;93.67;102102.19;5076096;28;20024;-36
2023/06/03 00:59:55;;;;;;;10.13;4.03;;;;;;;12.97;94.64;102098.06;5075844;28;20477;-36
2023/06/03 01:02:23;;;;;;;7.22;3.72;;;;;;;12.98;94.96;102105.19;5075597;28;20040;-36
2023/06/03 01:04:50;;;;;;;8.70;4.00;;;;;;;12.93;95.23;102104.97;5075288;28;20020;-36
2023/06/03 01:07:40;;;;;;;10.02;4.30;;;;;;;13.01;94.63;102095.75;5076071;28;20029;-36
2023/06/03 01:10:33;;;;;;;9.65;4.38;;;;;;;12.99;94.93;102106.00;5074930;28;20051;-36
2023/06/03 01:13:10;;;;;;;11.60;4.20;;;;;;;12.89;94.88;102101.03;5075972;28;20037;-36
2023/06/03 01:15:37;;;;;;;7.47;4.18;;;;;;;12.94;94.07;102101.22;5075154;28;20029;-36
2023/06/03 01:18:05;;;;;;;9.82;4.10;;;;;;;12.92;94.44;102100.59;5075634;28;20032;-36
2023/06/03 01:20:32;;;;;;;7.90;4.25;;;;;;;12.91;94.81;102098.94;5075005;28;20162;-36
2023/06/03 01:23:17;;;;;;;5.68;4.05;;;;;;;12.93;94.47;102110.38;5073688;28;20025;-35
2023/06/03 01:25:43;;;;;;;9.07;3.95;;;;;;;12.91;95.49;102103.53;5070980;28;20041;-36
2023/06/03 01:28:08;;;;;;;;;;;;;;;12.97;93.75;102110.81;5075243;28;20029;-36
2023/06/03 01:30:34;;;;;;;7.68;4.25;;;;;;;12.84;94.78;102106.28;5074789;28;19914;-36
2023/06/03 01:33:03;;;;;;;7.00;4.32;;;;;;;12.77;94.90;102108.16;5074766;28;20028;-36
2023/06/03 01:35:29;;;;;;;9.52;4.35;;;;;;;12.83;94.97;102101.88;5074967;28;20020;-36
2023/06/03 01:37:55;;;;;;;10.15;4.07;;;;;;;12.87;94.49;102116.69;5074815;28;20052;-36
2023/06/03 01:40:20;;;;;;;;;;;;;;;12.92;92.95;102113.34;5075324;28;20029;-36
2023/06/03 01:42:46;;;;;;;6.93;3.70;;;;;;;12.78;94.44;102105.22;5074301;28;19913;-36
2023/06/03 01:45:11;;;;;;;7.43;4.15;;;;;;;12.74;94.21;102114.88;5075183;28;20535;-36
2023/06/03 01:47:37;;;;;;;7.45;3.53;;;;;;;12.73;94.81;102112.34;5074776;28;20036;-36
2023/06/03 01:50:02;;;;;;;9.23;3.90;;;;;;;12.74;93.82;102114.06;5075191;28;20063;-36
2023/06/03 01:52:28;;;;;;;8.02;4.13;;;;;;;12.75;95.16;102108.41;5074424;28;20119;-36
2023/06/03 01:54:53;;;;;;;7.20;4.38;;;;;;;12.70;94.84;102113.63;5074846;28;20037;-36
2023/06/03 01:57:19;;;;;;;8.30;4.15;;;;;;;12.59;94.38;102104.28;5074930;28;20044;-36
2023/06/03 01:59:44;;;;;;;6.95;4.07;;;;;;;12.60;95.13;102115.97;5074366;28;20061;-36
2023/06/03 02:02:10;;;;;;;7.03;4.75;;;;;;;12.54;96.17;102122.22;5075033;28;20353;-36
2023/06/03 02:04:35;;;;;;;7.27;4.57;;;;;;;12.49;96.50;102094.91;5074464;28;20453;-36
2023/06/03 02:07:00;;;;;;;;;;;;;;;12.65;93.91;102113.44;5074868;28;20357;-36
2023/06/03 02:09:28;;;;;;;7.82;3.72;;;;;;;12.59;95.50;102114.28;5074337;28;20324;-36
2023/06/03 02:11:58;;;;;;;7.38;5.05;;;;;;;12.47;96.25;102107.84;5073736;28;20465;-36
2023/06/03 02:14:26;;;;;;;9.82;4.40;;;;;;;12.47;96.20;102103.25;5074006;28;20372;-36
2023/06/03 02:16:52;;;;;;;9.73;4.80;;;;;;;12.37;96.05;102105.59;5073660;28;20508;-36
2023/06/03 02:19:19;;;;;;;;;;;;;;;12.51;94.67;102103.69;5073944;28;20025;-36
2023/06/03 02:21:45;;;;;;;7.72;4.35;;;;;;;12.32;96.45;102097.25;5073950;28;19912;-36
2023/06/03 02:24:11;;;;;;;;;;;;;;;12.50;94.23;102111.00;5074555;28;20475;-36
2023/06/03 02:26:39;;;;;;;7.40;4.25;;;;;;;12.41;96.24;102106.00;5074126;28;20028;-36
2023/06/03 02:29:05;;;;;;;6.25;3.90;;;;;;;12.38;96.15;102101.81;5074033;28;20362;-36
2023/06/03 02:31:31;;;;;;;5.68;4.05;;;;;;;12.38;96.35;102099.09;5073747;28;20487;-36
2023/06/03 02:33:56;;;;;;;5.93;4.05;;;;;;;12.36;96.07;102099.34;5073448;28;20056;-36
2023/06/03 02:36:21;;;;;;;6.17;4.10;;;;;;;12.34;96.31;102106.00;5074031;28;20029;-36
2023/06/03 02:38:50;;;;;;;7.47;3.92;;;;;;;12.28;95.45;102104.13;5073856;28;20020;-36
2023/06/03 02:41:15;;;;;;;4.63;3.92;;;;;;;12.22;96.35;102100.41;5074177;28;20051;-36
2023/06/03 02:43:41;;;;;;;4.70;3.88;;;;;;;12.14;96.97;102088.94;5073616;28;20029;-36
2023/06/03 02:46:07;;;;;;;6.40;4.03;;;;;;;12.09;96.23;102092.28;5073630;28;20469;-36
2023/06/03 02:48:32;;;;;;;8.93;4.03;;;;;;;12.15;96.54;102096.03;5073612;28;20150;-36
2023/06/03 02:50:58;;;;;;;9.98;3.78;;;;;;;12.20;96.07;102099.78;5073575;28;20078;-36
2023/06/03 02:53:23;;;;;;;6.03;4.00;;;;;;;12.16;96.53;102109.38;5073528;28;20025;-35
2023/06/03 02:55:49;;;;;;;7.37;5.20;;;;;;;12.14;96.24;102105.22;5073282;28;20251;-35
2023/06/03 02:58:15;;;;;;;6.82;3.88;;;;;;;12.14;95.22;102107.91;5074029;28;20025;-36
2023/06/03 03:00:41;;;;;;;10.00;4.18;;;;;;;12.01;95.38;102096.06;5073309;28;20083;-36
2023/06/03 03:03:06;;;;;;;7.78;3.80;;;;;;;12.01;96.36;102100.66;5073341;28;20028;-36
2023/06/03 03:05:32;;;;;;;6.30;3.80;;;;;;;12.03;96.21;102110.22;5074280;28;20028;-36
2023/06/03 03:07:58;;;;;;;6.63;3.67;;;;;;;12.06;96.14;102106.28;5073411;28;20095;-36
2023/06/03 03:10:25;;;;;;;9.18;4.53;;;;;;;11.88;96.80;102101.47;5073360;28;20036;-36
2023/06/03 03:12:50;;;;;;;7.07;3.90;;;;;;;11.98;96.44;102107.31;5073879;28;20112;-36
2023/06/03 03:15:15;;;;;;;6.57;3.97;;;;;;;11.97;96.90;102111.06;5073652;28;20108;-36
2023/06/03 03:17:41;;;;;;;6.30;3.42;;;;;;;12.00;97.04;102107.91;5073871;28;20039;-36
2023/06/03 03:20:07;;;;;;;6.57;4.05;;;;;;;12.03;96.38;102109.41;5074038;28;20033;-36
2023/06/03 03:22:34;;;;;;;7.50;4.07;;;;;;;11.98;96.05;102106.47;5073845;28;20116;-36
2023/06/03 03:25:00;;;;;;;8.15;4.05;;;;;;;11.97;96.63;102115.66;5073154;28;20036;-36
2023/06/03 03:27:25;;;;;;;6.88;3.85;;;;;;;11.99;96.47;102114.38;5072891;28;20397;-36
2023/06/03 03:29:54;;;;;;;8.15;3.92;;;;;;;11.86;96.45;102111.72;5073361;28;20033;-36
2023/06/03 03:32:20;;;;;;;5.53;3.88;;;;;;;11.83;96.54;102114.81;5073145;28;20029;-36
2023/06/03 03:35:00;;;;;;;4.82;3.72;;;;;;;11.70;96.81;102109.34;5073126;28;20452;-36
2023/06/03 03:37:25;;;;;;;7.75;3.70;;;;;;;11.79;97.30;102113.53;5073427;28;20400;-36
2023/06/03 03:39:51;;;;;;;7.55;4.20;;;;;;;11.73;97.53;102115.19;5073581;28;20021;-36
2023/06/03 03:42:16;;;;;;;5.78;3.90;;;;;;;11.68;96.89;102106.03;5073127;28;20029;-36
2023/06/03 03:44:41;;;;;;;7.20;4.22;;;;;;;11.70;97.11;102121.03;5072802;28;20099;-36
2023/06/03 03:47:07;;;;;;;5.27;4.23;;;;;;;11.76;97.98;102125.63;5075904;28;20066;-36
2023/06/03 03:49:35;;;;;;;5.53;4.15;;;;;;;11.72;96.80;102131.69;5076429;28;20033;-36
2023/06/03 03:52:04;;;;;;;5.88;3.63;;;;;;;11.60;97.37;102117.91;5077483;28;20024;-36
2023/06/03 03:54:30;;;;;;;5.50;4.07;;;;;;;11.61;97.43;102111.44;5076353;28;20103;-43
2023/06/03 03:56:56;;;;;;;5.93;4.10;;;;;;;11.64;97.26;102121.03;5077506;28;20480;-37
2023/06/03 03:59:22;;;;;;;;;;;;;;;11.83;95.73;102126.50;5076971;28;20049;-36
2023/06/03 04:01:47;;;;;;;4.72;3.58;;;;;;;11.75;96.57;102120.41;5076587;28;20050;-36
2023/06/03 04:04:35;;;;;;;9.10;4.57;;;;;;;11.74;96.48;102125.00;5076241;28;20031;-36
2023/06/03 04:07:01;;;;;;;5.03;3.47;;;;;;;11.76;96.91;102124.78;5076702;28;20499;-36
2023/06/03 04:09:26;;;;;;;5.93;4.00;;;;;;;11.66;95.65;102117.06;5076334;28;20029;-36
2023/06/03 04:11:52;;;;;;;5.70;3.17;;;;;;;11.70;96.26;102131.88;5076356;28;20074;-36
2023/06/03 04:14:25;;;;;;;7.88;3.95;;;;;;;11.71;96.83;102132.69;5109539;28;20052;-36
2023/06/03 04:16:58;;;;;;;5.10;3.67;;;;;;;11.70;96.67;102128.31;5090302;28;20037;-36
2023/06/03 04:19:32;;;;;;;7.22;3.45;;;;;;;11.73;96.15;102133.34;5076362;28;20032;-36
2023/06/03 04:21:59;;;;;;;8.02;3.63;;;;;;;11.69;96.75;102132.09;5076733;28;20060;-36
2023/06/03 04:24:25;;;;;;;5.03;3.63;;;;;;;11.81;96.15;102125.03;5075812;28;20032;-36
2023/06/03 04:26:52;;;;;;;4.03;3.22;;;;;;;11.83;96.02;102131.91;5076102;28;20024;-37
2023/06/03 04:29:18;;;;;;;8.10;3.38;;;;;;;11.89;95.65;102130.25;5076026;28;20036;-37
2023/06/03 04:31:43;;;;;;;6.50;3.83;;;;;;;11.78;95.33;102133.56;5075964;28;20036;-36
2023/06/03 04:34:08;;;;;;;4.32;3.10;;;;;;;11.85;94.99;102131.69;5075973;28;20024;-36
2023/06/03 04:36:34;;;;;;;4.70;3.20;;;;;;;11.85;93.81;102134.41;5076551;28;20057;-36
2023/06/03 04:38:59;;;;;;;6.43;3.50;;;;;;;11.99;94.36;102135.25;5075774;28;20746;-36
2023/06/03 04:41:27;;;;;;;5.15;3.13;;;;;;;12.02;93.52;102134.84;5075624;28;20557;-36
2023/06/03 04:43:54;;;;;;;6.68;3.35;;;;;;;11.98;92.49;102129.00;5076242;28;20450;-36
2023/06/03 04:46:19;;;;;;;4.57;2.88;;;;;;;12.17;93.10;102140.03;5076029;28;20032;-36
2023/06/03 04:48:48;;;;;;;6.53;3.00;;;;;;;12.18;91.30;102144.41;5075375;28;20032;-36
2023/06/03 04:51:13;;;;;;;4.43;2.72;;;;;;;12.28;91.96;102136.69;5075598;28;20449;-36
2023/06/03 04:53:40;;;;;;;4.70;3.00;;;;;;;12.39;91.39;102144.16;5075567;28;20110;-36
2023/06/03 04:56:08;;;;;;;4.95;2.90;;;;;;;12.44;90.54;102143.53;5075850;28;20028;-36
2023/06/03 04:58:35;;;;;;;4.55;3.25;;;;;;;12.32;89.52;102127.09;5075396;28;20112;-36
2023/06/03 05:01:00;;;;;;;6.00;3.20;;;;;;;12.46;88.54;102136.88;5075217;28;20037;-36
2023/06/03 05:03:26;;;;;;;;;;;;;;;12.66;88.27;102144.13;5074824;28;20032;-36
2023/06/03 05:05:52;;;;;;;6.78;2.88;;;;;;;12.66;88.03;102142.25;5075374;28;19970;-36
2023/06/03 05:08:18;;;;;;;4.07;2.80;;;;;;;12.72;86.47;102135.94;5075269;28;20376;-36
2023/06/03 05:10:43;;;;;;;;;;;;;;;12.83;85.65;102146.16;5076553;28;20036;-36
2023/06/03 05:13:08;;;;;;;3.53;2.40;;;;;;;12.74;85.00;102133.88;5075500;28;19975;-36
2023/06/03 05:15:35;;;;;;;6.57;2.77;;;;;;;12.90;85.71;102154.28;5076049;28;20257;-36
2023/06/03 05:18:01;;;;;;;4.05;2.58;;;;;;;13.01;84.65;102145.44;5075095;28;20347;-36
2023/06/03 05:20:26;;;;;;;4.07;2.63;;;;;;;13.13;83.91;102142.91;5075249;28;20024;-36
2023/06/03 05:22:52;;;;;;;;;;;;;;;13.22;82.50;102138.06;5075416;28;20051;-36
2023/06/03 05:25:17;;;;;;;4.10;2.60;;;;;;;13.10;80.92;102127.03;5075247;28;20386;-36
2023/06/03 05:27:43;;;;;;;4.43;2.72;;;;;;;13.13;81.31;102143.75;5074984;28;20031;-41
2023/06/03 05:30:09;;;;;;;5.32;2.53;;;;;;;13.20;81.83;102149.13;5074656;28;20033;-37
2023/06/03 05:32:34;;;;;;;;;;;;;;;13.36;82.97;102143.22;5075827;28;20028;-37
2023/06/03 05:34:59;;;;;;;5.80;3.20;;;;;;;13.48;80.45;102146.09;5074764;28;19931;-37
2023/06/03 05:37:24;;;;;;;7.03;2.37;;;;;;;13.59;81.18;102145.38;5075058;28;20315;-37
2023/06/03 05:39:50;;;;;;;9.02;2.67;;;;;;;13.75;80.40;102140.47;5074679;28;20388;-36
2023/06/03 05:42:15;;;;;;;;;;;;;;;13.82;77.15;102149.41;5075172;28;20067;-36
2023/06/03 05:44:40;;;;;;;5.50;2.40;;;;;;;13.54;75.59;102139.78;5074253;28;19916;-36
2023/06/03 05:47:06;;;;;;;7.00;3.15;;;;;;;13.69;76.83;102141.34;5074632;28;20269;-36
2023/06/03 05:49:31;;;;;;;5.32;2.60;;;;;;;13.85;76.38;102140.78;5074506;28;20461;-36
2023/06/03 05:51:56;;;;;;;5.50;2.60;;;;;;;13.91;74.21;102150.81;5074548;28;20024;-36
2023/06/03 05:54:22;;;;;;;4.30;2.20;;;;;;;13.85;71.76;102143.50;5074127;28;20358;-36
2023/06/03 05:56:47;;;;;;;5.60;2.40;;;;;;;13.97;73.72;102136.31;5074413;28;20757;-36
2023/06/03 05:59:12;;;;;;;;;;;;;;;14.16;73.48;102138.03;5075208;28;20097;-36
2023/06/03 06:01:38;;;;;;;4.32;1.90;;;;;;;14.29;73.15;102141.66;5074823;28;19913;-36
2023/06/03 06:04:03;;;;;;;5.60;2.00;;;;;;;14.35;70.35;102140.78;5073967;28;20071;-36
2023/06/03 06:06:29;;;;;;;6.20;1.90;;;;;;;14.34;71.01;102122.78;5075038;28;20060;-36
2023/06/03 06:08:54;;;;;;;;;;;;;;;14.63;68.13;102143.84;5074077;28;20465;-36
2023/06/03 06:11:23;;;;;;;4.83;2.13;;;;;;;14.58;67.12;102143.69;5074379;28;19913;-36
2023/06/03 06:13:48;;;;;;;3.33;1.80;;;;;;;14.66;68.23;102137.13;5073660;28;20623;-37
2023/06/03 06:16:14;;;;;;;;;;;;;;;14.84;67.48;102141.75;5074738;28;20028;-36
2023/06/03 06:18:40;;;;;;;3.83;2.17;;;;;;;14.76;65.84;102142.03;5073945;28;19956;-36
2023/06/03 06:21:05;;;;;;;;;;;;;;;14.88;66.13;102151.97;5074002;28;20061;-36
2023/06/03 06:23:30;;;;;;;6.97;1.77;;;;;;;14.90;65.37;102138.94;5074197;28;19912;-37
2023/06/03 06:25:55;;;;;;;;;;;;;;;15.04;65.97;102150.50;5074048;28;20090;-36
2023/06/03 06:28:26;;;;;;;2.65;1.60;;;;;;;15.12;65.47;102157.50;5074102;28;19913;-36
2023/06/03 06:30:53;;;;;;;2.40;1.73;;;;;;;15.06;62.74;102161.16;5074629;28;20056;-36
2023/06/03 06:33:18;;;;;;;5.18;1.80;;;;;;;15.15;62.79;102163.34;5074001;28;20059;-36
2023/06/03 06:35:44;;;;;;;;;;;;;;;15.34;66.24;102155.13;5075045;28;20048;-36
2023/06/03 06:38:11;;;;;;;2.92;1.80;;;;;;;15.39;62.71;102149.81;5073385;28;19912;-36
2023/06/03 06:40:40;;;;;;;4.47;1.88;;;;;;;15.48;62.01;102156.63;5073193;28;20029;-36
2023/06/03 06:43:08;;;;;;;3.58;1.73;;;;;;;15.61;63.14;102145.50;5073858;28;20103;-36
2023/06/03 06:45:34;;;;;;;5.95;2.10;;;;;;;15.55;60.86;102154.63;5073622;28;20046;-36
2023/06/03 06:48:06;;;;;;;4.63;2.05;;;;;;;15.55;61.60;102140.97;5073545;28;20028;-36
2023/06/03 06:50:37;;;;;;;4.20;1.98;;;;;;;15.66;62.17;102148.41;5074406;28;20020;-36
2023/06/03 06:53:03;;;;;;;4.40;1.98;;;;;;;15.67;60.53;102144.63;5073522;28;20028;-36
2023/06/03 06:55:41;;;;;;;;;;;;;;;15.82;61.55;102156.97;5074298;28;20060;-37
2023/06/03 06:58:10;;;;;;;4.07;1.75;;;;;;;15.96;62.45;102155.72;5073746;28;19959;-36
2023/06/03 07:00:37;;;;;;;3.17;1.67;;;;;;;16.11;62.14;102149.78;5073072;28;20048;-37
2023/06/03 07:03:05;;;;;;;4.50;1.80;;;;;;;16.12;58.74;102157.72;5073151;28;20459;-36
2023/06/03 07:05:30;;;;;;;3.60;1.90;;;;;;;16.14;57.13;102155.59;5074008;28;20393;-37
2023/06/03 07:07:55;;;;;;;;;;;;;;;16.24;58.36;102152.25;5074071;28;20021;-37
2023/06/03 07:10:21;;;;;;;4.87;1.70;;;;;;;16.26;56.87;102152.06;5073680;28;20392;-37
2023/06/03 07:12:47;;;;;;;;;;;;;;;16.42;57.50;102154.06;5073822;28;20150;-37
2023/06/03 07:15:12;;;;;;;3.90;1.50;;;;;;;16.28;56.64;102134.34;5073633;28;20353;-37
2023/06/03 07:17:39;;;;;;;;;;;;;;;16.44;57.00;102143.72;5074057;28;20489;-37
2023/06/03 07:20:05;;;;;;;5.65;1.50;;;;;;;16.40;54.73;102143.38;5073282;28;19912;-37
2023/06/03 07:22:31;;;;;;;4.35;1.65;;;;;;;16.54;54.03;102149.41;5077183;28;20024;-36
2023/06/03 07:24:56;;;;;;;;;;;;;;;16.63;55.07;102142.50;5077763;28;20380;-37
2023/06/03 07:27:27;;;;;;;4.70;1.93;;;;;;;16.65;52.02;102153.22;5077481;28;19915;-37
2023/06/03 07:29:56;;;;;;;4.32;1.70;;;;;;;16.77;53.55;102155.94;5077199;28;20310;-37
2023/06/03 07:32:24;;;;;;;5.05;1.67;;;;;;;16.82;51.70;102156.88;5077447;28;20430;-37
2023/06/03 07:34:50;;;;;;;4.90;1.77;;;;;;;16.77;51.36;102161.41;5076978;28;20098;-37
2023/06/03 07:37:17;;;;;;;;;;;;;;;16.96;52.80;102157.44;5077474;28;20032;-37
2023/06/03 07:39:42;;;;;;;2.60;1.33;;;;;;;17.13;53.58;102152.03;5076878;28;19946;-37
2023/06/03 07:42:18;;;;;;;;;;;;;;;17.29;54.21;102148.53;5077459;28;20411;-35
2023/06/03 07:44:48;;;;;;;4.70;1.20;;;;;;;17.37;51.11;102147.31;5077134;28;20003;-37
2023/06/03 07:47:16;;;;;;;3.97;1.30;;;;;;;17.40;49.50;102152.28;5077450;28;20032;-36
2023/06/03 07:49:45;;;;;;;3.00;1.30;;;;;;;17.46;48.68;102148.56;5076790;28;20029;-37
2023/06/03 07:52:19;;;;;;;2.63;1.30;;;;;;;17.56;48.14;102140.53;5076774;28;20025;-36
2023/06/03 07:54:44;;;;;;;3.13;1.35;;;;;;;17.63;46.33;102143.97;5077528;28;20029;-36
2023/06/03 07:57:15;;;;;;;4.45;1.40;;;;;;;17.69;46.09;102151.19;5076708;28;20039;-36
2023/06/03 07:59:58;;;;;;;3.38;1.15;;;;;;;17.73;47.99;102159.75;5077114;28;20056;-36
2023/06/03 08:02:23;;;;;;;3.03;1.30;;;;;;;17.70;46.40;102152.84;5076843;28;20031;-36
2023/06/03 08:04:52;;;;;;;4.25;1.50;;;;;;;17.84;46.09;102161.59;5076510;28;20020;-36
2023/06/03 08:07:17;;;;;;;5.05;1.42;;;;;;;17.96;44.61;102162.34;5077276;28;20095;-36
2023/06/03 08:09:42;;;;;;;2.92;1.00;;;;;;;17.89;43.51;102152.63;5076944;28;20062;-37
2023/06/03 08:12:08;;;;;;;;;;;;;;;18.08;44.93;102162.25;5076892;28;20029;-37
2023/06/03 08:14:38;;;;;;;6.50;1.33;;;;;;;18.11;43.99;102152.75;5076579;28;19909;-37
2023/06/03 08:17:08;;;;;;;2.95;1.27;;;;;;;18.22;42.95;102158.13;5076014;28;20036;-37
2023/06/03 08:19:33;;;;;;;2.38;1.17;;;;;;;18.26;41.21;102153.78;5076187;28;20020;-37
2023/06/03 08:21:59;;;;;;;2.53;0.90;;;;;;;18.33;41.95;102144.56;5076743;28;20031;-37
2023/06/03 08:24:24;;;;;;;8.32;1.40;;;;;;;18.47;42.50;102140.41;5076383;28;20123;-37
2023/06/03 08:26:50;;;;;;;3.63;1.00;;;;;;;18.59;41.13;102154.78;5076890;28;20032;-36
2023/06/03 08:29:15;;;;;;;2.97;0.95;;;;;;;18.65;41.05;102147.50;5076025;28;20150;-36
2023/06/03 08:31:41;;;;;;;2.10;1.00;;;;;;;18.53;39.12;102144.84;5075896;28;20025;-36
2023/06/03 08:34:06;;;;;;;;;;;;;;;18.69;38.94;102146.78;5076361;28;20024;-36
2023/06/03 08:36:32;;;;;;;6.75;1.05;;;;;;;18.68;38.34;102158.78;5076792;28;19954;-36
2023/06/03 08:38:58;;;;;;;2.47;0.90;;;;;;;18.80;38.90;102152.38;5076031;28;20025;-36
2023/06/03 08:41:36;;;;;;;3.05;0.95;;;;;;;18.82;38.62;102153.78;5076074;28;20039;-36
2023/06/03 08:44:05;;;;;;;4.88;1.10;;;;;;;18.99;39.43;102145.50;5075495;28;20028;-36
2023/06/03 08:47:06;;;;;;;2.90;1.00;;;;;;;18.91;37.69;102145.94;5076053;28;20052;-37
2023/06/03 08:49:40;;;;;;;6.55;1.15;;;;;;;19.00;38.00;102147.97;5075371;28;20086;-37
2023/06/03 08:52:08;;;;;;;8.23;1.40;;;;;;;18.90;38.08;102147.03;5076510;28;20107;-37
2023/06/03 08:54:35;;;;;;;5.68;1.00;;;;;;;19.07;38.60;102150.50;5075547;28;20476;-37
2023/06/03 08:57:06;;;;;;;5.18;1.15;;;;;;;19.24;39.42;102140.31;5076137;28;20036;-37
2023/06/03 08:59:34;;;;;;;5.35;1.10;;;;;;;19.22;38.09;102150.69;5075540;28;20373;-37
2023/06/03 09:02:04;;;;;;;5.45;1.15;;;;;;;19.19;37.46;102136.69;5076298;28;20032;-37
2023/06/03 09:04:30;;;;;;;4.63;1.10;;;;;;;19.34;38.70;102142.31;5075348;28;20025;-37
2023/06/03 09:06:57;;;;;;;10.73;1.63;;;;;;;19.16;37.98;102154.47;5075906;28;20105;-37
2023/06/03 09:09:24;;;;;;;4.07;0.95;;;;;;;19.28;38.12;102146.94;5075317;28;20047;-37
2023/06/03 09:11:50;;;;;;;2.20;0.90;;;;;;;19.47;37.99;102141.06;5075531;28;20074;-37
2023/06/03 09:14:17;;;;;;;3.25;1.20;;;;;;;19.51;38.18;102145.78;5075146;28;20047;-37
2023/06/03 09:16:43;;;;;;;9.68;1.65;;;;;;;19.58;37.58;102142.03;5075445;28;20479;-37
2023/06/03 09:19:09;;;;;;;4.95;0.93;;;;;;;19.44;37.37;102145.16;5075053;28;20028;-38
2023/06/03 09:21:37;;;;;;;1.80;0.93;;;;;;;19.46;36.81;102153.13;5075370;28;20074;-36
2023/06/03 09:24:02;;;;;;;1.88;0.90;;;;;;;19.38;36.03;102139.91;5075004;28;20032;-36
2023/06/03 09:26:28;;;;;;;4.30;1.13;;;;;;;19.49;36.02;102134.25;5075552;28;20028;-38
2023/06/03 09:28:53;;;;;;;4.03;1.13;;;;;;;19.75;37.06;102140.81;5074976;28;20032;-36
2023/06/03 09:31:19;;;;;;;3.70;1.05;;;;;;;19.89;36.67;102132.97;5074909;28;20130;-36
2023/06/03 09:33:45;;;;;;;2.72;0.90;;;;;;;20.00;36.06;102139.38;5075064;28;20024;-36
2023/06/03 09:36:13;;;;;;;5.60;0.80;;;;;;;20.06;35.39;102138.34;5074549;28;20122;-37
2023/06/03 09:38:56;;;;;;;2.22;0.75;;;;;;;20.18;35.12;102138.97;5074648;28;20040;-36
2023/06/03 09:41:26;;;;;;;4.15;1.15;;;;;;;20.32;35.05;102140.16;5074562;28;20112;-37
2023/06/03 09:43:57;;;;;;;7.47;1.10;;;;;;;20.58;35.22;102137.59;5074091;28;20037;-37
2023/06/03 09:46:24;;;;;;;2.35;0.80;;;;;;;20.58;33.36;102132.09;5074384;28;20025;-37
2023/06/03 09:48:50;;;;;;;6.60;1.95;;;;;;;20.70;34.12;102138.22;5075312;28;20073;-37
2023/06/03 09:51:15;;;;;;;2.65;0.65;;;;;;;20.77;33.16;102135.19;5074486;28;20107;-36
2023/06/03 09:53:41;;;;;;;1.77;0.55;;;;;;;20.88;34.24;102136.88;5074738;28;20032;-37
2023/06/03 09:56:26;;;;;;;6.97;1.02;;;;;;;20.86;33.34;102132.78;5074739;28;20453;-37
2023/06/03 09:59:11;;;;;;;4.15;0.95;;;;;;;21.07;32.16;102123.47;5074463;28;20024;-36
2023/06/03 10:01:37;;;;;;;6.28;1.08;;;;;;;20.88;29.79;102138.81;5074907;28;20032;-37
2023/06/03 10:04:02;;;;;;;1.15;0.60;;;;;;;20.76;29.07;102126.13;5074260;28;20093;-37
2023/06/03 10:06:27;;;;;;;3.55;0.88;;;;;;;20.98;29.75;102125.09;5074200;28;20025;-36
2023/06/03 10:08:53;;;;;;;5.28;0.93;;;;;;;21.26;31.76;102127.38;5074117;28;20029;-37
2023/06/03 10:11:19;;;;;;;3.35;0.60;;;;;;;21.32;29.46;102131.81;5074382;28;20043;-37
2023/06/03 10:13:44;;;;;;;2.20;0.85;;;;;;;21.05;28.26;102120.19;5074328;28;20040;-37
2023/06/03 10:16:11;;;;;;;2.63;0.68;;;;;;;21.22;29.06;102137.28;5074404;28;20107;-37
2023/06/03 10:18:41;;;;;;;4.10;0.70;;;;;;;21.01;27.57;102141.06;5072773;28;20111;-37
2023/06/03 10:21:09;;;;;;;2.65;0.60;;;;;;;20.90;26.84;102137.47;5074431;28;20518;-36
2023/06/03 10:23:37;;;;;;;2.88;0.80;;;;;;;21.04;27.95;102135.88;5073532;28;20027;-37
2023/06/03 10:26:04;;;;;;;1.55;0.80;;;;;;;21.09;28.07;102099.31;5073863;28;20024;-38
2023/06/03 10:28:30;;;;;;;2.85;0.70;;;;;;;21.29;27.16;102093.84;5073491;28;20052;-37
2023/06/03 10:30:57;;;;;;;2.42;0.57;;;;;;;21.22;26.58;102134.53;5073846;28;20068;-37
2023/06/03 10:33:23;;;;;;;1.00;0.50;;;;;;;21.38;25.59;102123.59;5073413;28;20495;-37
2023/06/03 10:35:49;;;;;;;0.70;0.47;;;;;;;21.39;25.65;102123.31;5073769;28;20468;-37
2023/06/03 10:38:15;;;;;;;2.50;0.50;;;;;;;21.64;26.33;102128.03;5073646;28;20051;-37
2023/06/03 10:40:42;;;;;;;2.42;0.50;;;;;;;21.61;25.24;102128.56;5073369;28;20025;-37
2023/06/03 10:43:09;;;;;;;2.13;0.60;;;;;;;21.87;25.31;102120.34;5073666;28;20468;-37
2023/06/03 10:45:35;;;;;;;1.02;0.40;;;;;;;21.79;24.76;102129.97;5073629;28;20441;-37
2023/06/03 10:48:07;;;;;;;0.80;0.50;;;;;;;22.08;27.54;102132.97;5073507;28;20056;-37
2023/06/03 10:50:32;;;;;;;6.00;0.68;;;;;;;21.84;24.89;102122.53;5073310;28;20025;-37
2023/06/03 10:53:12;;;;;;;3.55;0.80;;;;;;;21.57;26.30;102120.06;5073130;28;20078;-38
2023/06/03 10:56:26;;;;;;;2.63;0.60;;;;;;;22.12;27.20;102122.25;5073376;28;20067;-38
2023/06/03 10:59:02;;;;;;;1.70;0.60;;;;;;;22.05;27.21;102126.06;5053569;28;20077;-38
2023/06/03 11:01:54;;;;;;;;;;;;;;;22.22;27.18;102114.81;5074470;28;20349;-37
2023/06/03 11:04:20;;;;;;;1.95;0.63;;;;;;;22.02;26.24;102125.81;5073134;28;20375;-38
2023/06/03 11:06:45;;;;;;;2.17;0.60;;;;;;;22.19;25.72;102123.63;5073608;28;20020;-38
2023/06/03 11:09:16;;;;;;;1.20;0.88;;;;;;;22.41;26.74;102111.47;5073915;28;20025;-38
2023/06/03 11:11:41;;;;;;;1.83;0.55;;;;;;;22.73;26.46;102108.28;5073702;28;20032;-37
2023/06/03 11:14:07;;;;;;;1.05;0.50;;;;;;;22.48;24.14;102117.50;5074186;28;20412;-37
2023/06/03 11:16:54;;;;;;;0.80;0.50;;;;;;;22.57;26.33;102113.03;5073915;28;20025;-38
2023/06/03 11:19:54;;;;;;;2.25;0.65;;;;;;;22.74;26.40;102118.22;5073172;28;20526;-38
2023/06/03 11:22:28;;;;;;;1.90;0.63;;;;;;;22.56;25.50;102111.41;5073637;28;20380;-38
2023/06/03 11:25:00;;;;;;;1.10;0.63;;;;;;;22.46;25.09;102117.78;5074024;28;20037;-38
2023/06/03 11:27:27;;;;;;;1.23;0.60;;;;;;;22.35;24.97;102133.53;5073525;28;20028;-38
2023/06/03 11:29:56;;;;;;;1.08;0.50;;;;;;;22.31;25.08;102118.66;5072982;28;20043;-38
2023/06/03 11:32:22;;;;;;;3.00;0.70;;;;;;;22.24;25.81;102109.81;5074095;28;20369;-38
2023/06/03 11:35:03;;;;;;;2.15;0.70;;;;;;;21.95;25.76;102117.00;5073986;28;20396;-38